Time;durP1;ratioP1;P1;durP2;ratioP2;P2;SDS_P1;SDS_P2;PMS_P1;PMS_P2;Temp;Humidity;BMP_temperature;BMP_pressure;BME280_temperature;BME280_humidity;BME280_pressure;Samples;Min_cycle;Max_cycle;Signal;HPM_P1;HPM_P2
2021/03/11 00:00:00;;;;;;;25.23;18.90;;;;;;;6.26;76.92;100227.47;351016;28;1065;-69
2021/03/11 00:00:12;;;;;;;26.25;18.75;;;;;;;6.26;77.18;100215.25;351216;28;2041;-69
2021/03/11 00:00:23;;;;;;;27.88;18.54;;;;;;;6.27;76.71;100208.22;352369;28;1163;-69
2021/03/11 00:00:36;;;;;;;27.00;17.67;;;;;;;6.26;76.36;100217.84;352351;28;1157;-68
2021/03/11 00:00:47;;;;;;;23.52;16.48;;;;;;;6.25;76.37;100217.88;352465;28;1120;-68
2021/03/11 00:00:59;;;;;;;21.17;14.98;;;;;;;6.23;76.79;100211.88;352048;27;1691;-68
2021/03/11 00:01:10;;;;;;;20.52;14.50;;;;;;;6.23;77.33;100217.94;353491;27;1181;-69
2021/03/11 00:01:21;;;;;;;21.73;14.27;;;;;;;6.23;77.68;100219.72;353779;27;1090;-69
2021/03/11 00:01:32;;;;;;;23.10;15.20;;;;;;;6.25;76.33;100220.50;353243;27;1101;-69
2021/03/11 00:01:44;;;;;;;27.38;18.15;;;;;;;6.30;76.81;100217.75;352558;28;1195;-66
2021/03/11 00:01:55;;;;;;;29.27;20.38;;;;;;;6.33;76.68;100215.00;352574;28;1186;-66
2021/03/11 00:02:06;;;;;;;24.77;18.65;;;;;;;6.27;76.40;100216.94;353119;27;1184;-68
2021/03/11 00:02:18;;;;;;;21.25;16.40;;;;;;;6.23;77.20;100207.47;353981;27;1136;-69
2021/03/11 00:02:29;;;;;;;19.55;14.85;;;;;;;6.23;76.47;100211.88;353972;27;1083;-67
2021/03/11 00:02:41;;;;;;;22.02;16.17;;;;;;;6.25;76.51;100210.03;352820;27;1197;-69
2021/03/11 00:02:52;;;;;;;24.83;17.95;;;;;;;6.26;76.68;100206.50;352579;28;1174;-70
2021/03/11 00:03:05;;;;;;;25.27;17.65;;;;;;;6.28;76.36;100205.53;352414;28;1264;-69
2021/03/11 00:03:22;;;;;;;26.08;17.15;;;;;;;6.27;76.94;100201.19;351589;28;23696;-69
2021/03/11 00:03:33;;;;;;;27.42;17.27;;;;;;;6.31;77.15;100206.34;349953;28;71764;-69
2021/03/11 00:03:44;;;;;;;28.48;19.02;;;;;;;6.33;77.14;100207.97;352391;28;1129;-66
2021/03/11 00:03:55;;;;;;;29.45;20.48;;;;;;;6.33;76.70;100202.72;352336;28;1146;-69
2021/03/11 00:04:09;;;;;;;27.65;20.30;;;;;;;6.33;76.23;100212.38;351544;28;23562;-69
2021/03/11 00:04:20;;;;;;;26.98;19.58;;;;;;;6.34;75.94;100221.97;352253;28;1246;-69
2021/03/11 00:04:31;;;;;;;23.52;17.58;;;;;;;6.28;77.16;100218.63;352431;28;1321;-69
2021/03/11 00:04:44;;;;;;;22.55;16.30;;;;;;;6.29;77.54;100219.47;352383;28;1218;-68
2021/03/11 00:04:55;;;;;;;23.17;16.70;;;;;;;6.28;76.35;100205.53;350754;28;1966;-69
2021/03/11 00:05:09;;;;;;;23.88;16.67;;;;;;;6.22;76.40;100200.53;351833;28;1063;-70
2021/03/11 00:05:21;;;;;;;22.75;15.40;;;;;;;6.25;77.65;100205.66;351656;28;24444;-69
2021/03/11 00:05:33;;;;;;;24.50;16.52;;;;;;;6.25;77.12;100202.16;353511;27;1089;-69
2021/03/11 00:05:44;;;;;;;24.00;17.55;;;;;;;6.26;77.13;100209.13;352648;28;1158;-69
2021/03/11 00:05:56;;;;;;;21.65;16.35;;;;;;;6.23;77.70;100204.84;352320;27;1216;-67
2021/03/11 00:06:07;;;;;;;21.70;15.98;;;;;;;6.24;76.67;100209.19;352293;28;1428;-69
2021/03/11 00:06:18;;;;;;;23.52;16.45;;;;;;;6.27;77.26;100201.19;352411;28;1162;-69
2021/03/11 00:06:29;;;;;;;25.10;17.80;;;;;;;6.26;76.38;100207.38;352385;28;1064;-68
2021/03/11 00:06:40;;;;;;;23.17;17.10;;;;;;;6.25;76.99;100210.03;352307;28;1134;-69
2021/03/11 00:06:51;;;;;;;21.10;16.05;;;;;;;6.25;77.33;100191.66;352247;27;1253;-64
2021/03/11 00:07:03;;;;;;;22.67;17.00;;;;;;;6.25;77.52;100210.91;352288;27;1074;-68
2021/03/11 00:07:15;;;;;;;24.70;17.55;;;;;;;6.21;77.06;100206.69;353883;27;963;-69
2021/03/11 00:07:26;;;;;;;22.92;16.60;;;;;;;6.18;77.41;100193.69;353930;27;763;-69
2021/03/11 00:07:38;;;;;;;22.42;14.95;;;;;;;6.17;76.88;100210.31;353700;27;1137;-69
2021/03/11 00:07:49;;;;;;;21.85;14.73;;;;;;;6.19;77.08;100205.03;352416;28;1441;-69
2021/03/11 00:08:01;;;;;;;24.55;17.33;;;;;;;6.22;77.19;100200.53;351026;28;1165;-68
2021/03/11 00:08:13;;;;;;;25.63;19.58;;;;;;;6.22;77.03;100200.53;351070;28;1143;-69
2021/03/11 00:08:24;;;;;;;24.48;17.98;;;;;;;6.21;76.90;100204.06;351288;28;2059;-68
2021/03/11 00:08:35;;;;;;;24.40;17.40;;;;;;;6.26;76.71;100207.38;352118;28;1088;-68
2021/03/11 00:08:47;;;;;;;25.40;18.38;;;;;;;6.27;77.54;100206.44;352375;28;1334;-69
2021/03/11 00:08:58;;;;;;;26.23;19.60;;;;;;;6.29;76.82;100201.13;351431;28;1036;-68
2021/03/11 00:09:09;;;;;;;24.42;18.70;;;;;;;6.26;77.12;100204.75;352446;28;1286;-69
2021/03/11 00:09:20;;;;;;;23.88;17.60;;;;;;;6.24;76.64;100201.31;352446;28;1012;-68
2021/03/11 00:09:31;;;;;;;21.10;14.90;;;;;;;6.26;77.14;100206.50;350883;28;1067;-69
2021/03/11 00:09:42;;;;;;;22.85;16.15;;;;;;;6.25;76.90;100218.75;350998;28;1067;-70
2021/03/11 00:09:53;;;;;;;23.15;16.42;;;;;;;6.22;77.29;100218.00;351011;28;1056;-69
2021/03/11 00:10:06;;;;;;;24.55;18.30;;;;;;;6.17;77.83;100204.22;350957;28;1169;-69
2021/03/11 00:10:18;;;;;;;21.30;16.08;;;;;;;6.18;77.99;100204.19;351497;28;27623;-69
2021/03/11 00:10:29;;;;;;;19.63;14.57;;;;;;;6.18;78.11;100198.94;352684;28;1208;-69
2021/03/11 00:10:41;;;;;;;20.88;13.63;;;;;;;6.18;77.37;100217.28;352336;28;1204;-68
2021/03/11 00:10:52;;;;;;;20.52;13.38;;;;;;;6.21;77.13;100214.53;352859;27;1170;-68
2021/03/11 00:11:03;;;;;;;22.65;15.48;;;;;;;6.24;77.48;100216.19;353862;27;1108;-70
2021/03/11 00:11:14;;;;;;;22.70;16.63;;;;;;;6.21;76.74;100217.16;352293;28;1226;-69
2021/03/11 00:11:25;;;;;;;22.23;16.40;;;;;;;6.18;77.97;100198.94;352259;28;1121;-69
2021/03/11 00:11:37;;;;;;;20.48;14.30;;;;;;;6.18;78.04;100195.44;352377;28;1081;-68
2021/03/11 00:11:48;;;;;;;22.05;14.75;;;;;;;6.20;77.94;100197.09;352326;28;1087;-68
2021/03/11 00:11:59;;;;;;;25.83;17.25;;;;;;;6.24;78.29;100201.31;352291;28;1238;-68
2021/03/11 00:12:11;;;;;;;27.42;18.85;;;;;;;6.24;77.16;100205.72;351017;28;1126;-68
2021/03/11 00:12:22;;;;;;;24.27;17.95;;;;;;;6.20;77.14;100202.34;350940;28;1101;-68
2021/03/11 00:12:34;;;;;;;23.33;17.83;;;;;;;6.19;78.24;100200.63;350854;27;2032;-68
2021/03/11 00:12:45;;;;;;;23.02;17.13;;;;;;;6.22;78.09;100203.16;352895;27;1166;-69
2021/03/11 00:12:56;;;;;;;23.63;17.58;;;;;;;6.18;78.15;100204.19;352064;27;1586;-67
2021/03/11 00:13:08;;;;;;;24.48;17.13;;;;;;;6.21;77.66;100204.06;352774;27;1092;-69
2021/03/11 00:13:19;;;;;;;24.35;16.38;;;;;;;6.20;77.33;100202.34;353694;27;1056;-70
2021/03/11 00:13:30;;;;;;;24.77;16.70;;;;;;;6.23;77.34;100212.72;353856;27;1076;-69
2021/03/11 00:13:42;;;;;;;22.70;16.60;;;;;;;6.24;77.01;100209.19;353708;27;1110;-69
2021/03/11 00:13:53;;;;;;;22.83;17.38;;;;;;;6.21;77.52;100209.31;352448;28;1092;-69
2021/03/11 00:14:04;;;;;;;20.30;15.20;;;;;;;6.19;77.58;100205.88;352694;28;1231;-69
2021/03/11 00:14:15;;;;;;;18.85;13.15;;;;;;;6.19;77.63;100211.13;353787;27;1086;-69
2021/03/11 00:14:26;;;;;;;19.25;11.77;;;;;;;6.20;78.67;100191.00;353822;27;1072;-69
2021/03/11 00:14:37;;;;;;;22.85;14.90;;;;;;;6.24;78.30;100201.31;352405;27;1320;-68
2021/03/11 00:14:48;;;;;;;24.52;16.95;;;;;;;6.25;77.68;100199.53;352348;28;1194;-69
2021/03/11 00:15:00;;;;;;;22.98;16.85;;;;;;;6.21;78.18;100204.06;352392;28;1147;-68
2021/03/11 00:15:18;;;;;;;20.70;15.32;;;;;;;6.16;77.72;100211.25;352289;28;1124;-68
2021/03/11 00:15:30;;;;;;;22.05;15.50;;;;;;;6.17;77.81;100201.59;349963;28;71889;-69
2021/03/11 00:15:42;;;;;;;22.85;15.75;;;;;;;6.19;78.40;100198.00;352396;28;1085;-69
2021/03/11 00:15:53;;;;;;;20.73;15.05;;;;;;;6.20;77.49;100199.72;352410;28;1233;-69
2021/03/11 00:16:05;;;;;;;20.17;13.73;;;;;;;6.20;77.05;100183.97;351859;28;1934;-67
2021/03/11 00:16:16;;;;;;;21.17;14.60;;;;;;;6.22;76.81;100184.78;352151;28;1234;-68
2021/03/11 00:16:28;;;;;;;23.23;15.90;;;;;;;6.22;78.00;100182.16;352439;28;1069;-67
2021/03/11 00:16:39;;;;;;;26.17;17.88;;;;;;;6.23;77.90;100186.47;350998;28;1081;-68
2021/03/11 00:16:51;;;;;;;27.92;18.70;;;;;;;6.24;77.68;100177.72;351031;28;1121;-68
2021/03/11 00:17:06;;;;;;;26.15;18.48;;;;;;;6.22;77.78;100187.41;351045;28;1179;-69
2021/03/11 00:17:18;;;;;;;25.52;18.82;;;;;;;6.22;77.83;100187.41;350752;28;46553;-69
2021/03/11 00:17:29;;;;;;;23.98;17.80;;;;;;;6.18;77.05;100183.22;352423;28;1147;-68
2021/03/11 00:17:42;;;;;;;23.15;16.50;;;;;;;6.18;77.97;100201.56;352410;28;1106;-70
2021/03/11 00:17:53;;;;;;;20.75;14.68;;;;;;;6.18;78.05;100191.06;353200;27;1297;-65
2021/03/11 00:18:06;;;;;;;21.20;15.07;;;;;;;6.16;78.35;100200.75;352343;28;1065;-68
2021/03/11 00:18:18;;;;;;;21.10;15.63;;;;;;;6.16;78.01;100189.41;352425;28;1154;-69
2021/03/11 00:18:29;;;;;;;19.85;14.57;;;;;;;6.16;77.76;100192.88;352435;28;1052;-68
2021/03/11 00:18:41;;;;;;;20.67;14.07;;;;;;;6.19;78.43;100195.38;352081;27;1869;-67
2021/03/11 00:18:52;;;;;;;22.38;15.10;;;;;;;6.19;78.53;100189.28;353369;27;1145;-69
2021/03/11 00:19:03;;;;;;;23.20;16.35;;;;;;;6.16;77.93;100226.13;352407;28;1059;-69
2021/03/11 00:19:14;;;;;;;22.25;16.25;;;;;;;6.15;77.38;100180.66;353140;27;1120;-69
2021/03/11 00:19:26;;;;;;;22.70;16.88;;;;;;;6.19;77.68;100181.41;352429;28;1133;-69
2021/03/11 00:19:37;;;;;;;23.27;16.83;;;;;;;6.19;78.22;100189.28;352158;28;1265;-68
2021/03/11 00:19:48;;;;;;;23.50;16.08;;;;;;;6.17;77.98;100198.97;350829;28;1081;-66
2021/03/11 00:20:00;;;;;;;23.40;15.43;;;;;;;6.19;78.46;100191.91;349563;28;1015;-69
2021/03/11 00:20:15;;;;;;;21.85;14.82;;;;;;;6.19;77.63;100184.03;349613;28;1097;-69
2021/03/11 00:20:31;;;;;;;23.90;16.15;;;;;;;6.20;77.82;100199.72;347200;28;70202;-68
2021/03/11 00:20:42;;;;;;;24.10;17.00;;;;;;;6.20;78.59;100186.59;349395;28;1126;-69
2021/03/11 00:21:01;;;;;;;19.75;15.38;;;;;;;6.16;78.75;100184.16;346767;28;70969;-69
2021/03/11 00:21:18;;;;;;;19.35;14.05;;;;;;;6.16;78.22;100189.41;347002;28;70956;-67
2021/03/11 00:21:30;;;;;;;20.40;14.13;;;;;;;6.19;77.45;100213.72;352173;28;1137;-69
2021/03/11 00:21:41;;;;;;;20.10;14.38;;;;;;;6.17;78.85;100197.22;352367;27;1432;-69
2021/03/11 00:21:52;;;;;;;20.23;15.30;;;;;;;6.16;78.87;100190.25;353382;27;1023;-69
2021/03/11 00:22:05;;;;;;;18.52;13.95;;;;;;;6.17;77.55;100186.72;352427;28;1019;-69
2021/03/11 00:22:16;;;;;;;19.98;13.73;;;;;;;6.20;78.09;100194.47;351035;28;1108;-66
2021/03/11 00:22:27;;;;;;;21.00;13.95;;;;;;;6.23;78.85;100204.84;351852;28;1903;-69
2021/03/11 00:22:39;;;;;;;24.77;16.15;;;;;;;6.26;78.72;100170.66;352259;28;1172;-68
2021/03/11 00:22:52;;;;;;;24.30;16.85;;;;;;;6.21;77.96;100159.47;352367;28;1107;-69
2021/03/11 00:23:03;;;;;;;22.65;16.55;;;;;;;6.23;77.87;100176.00;352788;27;1297;-68
2021/03/11 00:23:14;;;;;;;23.23;16.60;;;;;;;6.23;78.49;100191.72;353834;27;1104;-68
2021/03/11 00:23:26;;;;;;;25.42;16.98;;;;;;;6.20;78.37;100191.84;353676;27;1056;-69
2021/03/11 00:23:37;;;;;;;22.52;14.92;;;;;;;6.18;78.23;100183.22;352336;28;1052;-69
2021/03/11 00:23:48;;;;;;;20.35;13.52;;;;;;;6.19;77.94;100174.41;352399;28;1100;-68
2021/03/11 00:23:59;;;;;;;20.88;14.52;;;;;;;6.21;78.74;100177.84;353089;27;1120;-69
2021/03/11 00:24:10;;;;;;;21.73;14.65;;;;;;;6.19;77.77;100163.91;353817;27;1205;-70
2021/03/11 00:24:21;;;;;;;21.13;14.32;;;;;;;6.20;77.91;100165.63;353831;27;1096;-68
2021/03/11 00:24:32;;;;;;;21.20;14.30;;;;;;;6.25;78.88;100171.56;353631;27;1609;-68
2021/03/11 00:24:44;;;;;;;24.23;16.65;;;;;;;6.27;78.91;100166.25;353317;27;1237;-69
2021/03/11 00:24:55;;;;;;;26.42;18.45;;;;;;;6.32;78.57;100181.78;352216;28;1668;-69
2021/03/11 00:25:12;;;;;;;25.77;18.95;;;;;;;6.32;78.75;100187.03;350889;28;1200;-69
2021/03/11 00:25:27;;;;;;;24.35;18.08;;;;;;;6.26;77.94;100185.50;348509;28;70809;-68
2021/03/11 00:25:38;;;;;;;22.98;16.15;;;;;;;6.22;77.33;100191.78;350941;28;44562;-68
2021/03/11 00:25:50;;;;;;;22.42;15.60;;;;;;;6.22;77.90;100199.66;352322;28;1364;-69
2021/03/11 00:26:01;;;;;;;23.63;15.93;;;;;;;6.21;78.11;100193.56;352400;27;1898;-68
2021/03/11 00:26:12;;;;;;;23.17;16.55;;;;;;;6.21;78.98;100204.06;352726;27;1217;-69
2021/03/11 00:26:24;;;;;;;20.45;15.23;;;;;;;6.22;78.54;100189.16;352090;27;1242;-68
2021/03/11 00:26:35;;;;;;;19.33;14.75;;;;;;;6.23;78.04;100193.50;352349;28;1131;-67
2021/03/11 00:26:46;;;;;;;20.42;14.80;;;;;;;6.26;78.36;100190.75;352436;28;1073;-68
2021/03/11 00:26:57;;;;;;;21.70;15.38;;;;;;;6.27;79.42;100185.44;352278;28;1431;-69
2021/03/11 00:27:08;;;;;;;23.45;16.40;;;;;;;6.24;78.26;100198.69;352058;28;1051;-69
2021/03/11 00:27:19;;;;;;;22.60;15.48;;;;;;;6.23;78.49;100175.16;352284;28;1076;-69
2021/03/11 00:27:30;;;;;;;21.40;14.85;;;;;;;6.24;78.25;100172.47;352435;28;1037;-69
2021/03/11 00:27:41;;;;;;;20.50;14.65;;;;;;;6.25;78.67;100184.66;352407;28;1064;-69
2021/03/11 00:27:53;;;;;;;19.60;14.18;;;;;;;6.26;78.55;100178.53;352348;28;1159;-69
2021/03/11 00:28:05;;;;;;;21.05;15.77;;;;;;;6.31;78.08;100169.63;352285;28;1183;-70
2021/03/11 00:28:16;;;;;;;21.40;16.38;;;;;;;6.28;78.55;100173.22;352324;28;1039;-70
2021/03/11 00:28:27;;;;;;;22.58;17.02;;;;;;;6.34;78.11;100172.13;351043;28;1026;-69
2021/03/11 00:28:39;;;;;;;23.67;17.13;;;;;;;6.37;77.96;100179.88;350579;28;1943;-66
2021/03/11 00:28:50;;;;;;;26.15;18.00;;;;;;;6.38;78.48;100173.72;350523;28;1249;-69
2021/03/11 00:29:01;;;;;;;25.95;18.13;;;;;;;6.36;77.83;100172.91;351182;28;1105;-69
2021/03/11 00:29:12;;;;;;;23.92;17.70;;;;;;;6.33;77.94;100170.41;352307;28;1136;-69
2021/03/11 00:29:24;;;;;;;24.23;17.60;;;;;;;6.34;78.04;100180.84;352405;28;1136;-69
2021/03/11 00:29:35;;;;;;;24.75;17.60;;;;;;;6.36;78.64;100183.38;352401;28;1477;-69
2021/03/11 00:29:46;;;;;;;24.60;17.80;;;;;;;6.35;78.54;100172.06;352374;28;1076;-69
2021/03/11 00:29:58;;;;;;;25.20;18.02;;;;;;;6.38;78.34;100185.03;349548;28;1064;-69
2021/03/11 00:30:12;;;;;;;24.73;17.15;;;;;;;6.33;79.02;100180.91;348105;28;1213;-69
2021/03/11 00:30:24;;;;;;;20.42;13.55;;;;;;;6.33;78.58;100175.66;346706;28;23854;-69
2021/03/11 00:30:35;;;;;;;19.77;14.98;;;;;;;6.32;77.91;100174.81;348223;28;1137;-67
2021/03/11 00:30:46;;;;;;;23.90;17.23;;;;;;;6.34;78.65;100180.00;348814;28;1591;-69
2021/03/11 00:30:57;;;;;;;23.20;16.13;;;;;;;6.31;77.62;100180.13;349456;28;1101;-68
2021/03/11 00:31:09;;;;;;;21.15;14.75;;;;;;;6.31;79.07;100167.00;349580;28;1140;-68
2021/03/11 00:31:20;;;;;;;22.48;15.98;;;;;;;6.32;77.87;100174.81;349624;28;1073;-67
2021/03/11 00:31:31;;;;;;;25.76;17.68;;;;;;;6.33;78.54;100165.16;349239;28;1105;-69
2021/03/11 00:31:43;;;;;;;25.13;17.42;;;;;;;6.33;78.00;100162.53;348198;28;1006;-69
2021/03/11 00:31:55;;;;;;;25.38;17.20;;;;;;;6.35;78.49;100179.91;347391;28;1120;-69
2021/03/11 00:32:06;;;;;;;26.55;18.17;;;;;;;6.32;78.81;100187.91;349004;28;1081;-69
2021/03/11 00:32:18;;;;;;;24.85;17.10;;;;;;;6.27;78.23;100182.00;349954;28;1174;-69
2021/03/11 00:32:29;;;;;;;21.60;16.55;;;;;;;6.24;79.14;100189.97;351022;28;1148;-69
2021/03/11 00:32:41;;;;;;;20.73;15.63;;;;;;;6.23;78.28;100175.16;350955;28;1049;-68
2021/03/11 00:32:53;;;;;;;20.50;15.15;;;;;;;6.25;79.40;100173.31;351268;28;1191;-68
2021/03/11 00:33:05;;;;;;;22.75;15.68;;;;;;;6.30;79.33;100178.41;350725;28;1943;-67
2021/03/11 00:33:16;;;;;;;20.98;15.58;;;;;;;6.28;78.89;100178.47;351216;28;1146;-68
2021/03/11 00:33:28;;;;;;;19.70;14.40;;;;;;;6.24;78.39;100180.34;350626;28;1365;-69
2021/03/11 00:33:39;;;;;;;18.88;13.98;;;;;;;6.22;78.39;100179.56;349504;28;1162;-70
2021/03/11 00:33:50;;;;;;;21.40;15.32;;;;;;;6.25;79.33;100178.56;350007;28;2109;-69
2021/03/11 00:34:02;;;;;;;21.13;14.75;;;;;;;6.24;78.34;100177.72;350917;28;1139;-69
2021/03/11 00:34:13;;;;;;;21.45;14.40;;;;;;;6.25;79.74;100178.56;350933;28;1122;-69
2021/03/11 00:34:24;;;;;;;20.02;13.77;;;;;;;6.26;79.15;100156.66;351084;28;1062;-69
2021/03/11 00:34:35;;;;;;;19.58;14.40;;;;;;;6.24;78.32;100180.34;349606;28;1073;-68
2021/03/11 00:34:46;;;;;;;19.50;15.82;;;;;;;6.22;78.99;100179.56;349494;28;1053;-69
2021/03/11 00:34:57;;;;;;;20.17;16.30;;;;;;;6.24;79.69;100169.00;349516;28;1020;-68
2021/03/11 00:35:10;;;;;;;22.10;16.23;;;;;;;6.25;78.93;100168.06;349527;28;1106;-68
2021/03/11 00:35:22;;;;;;;24.83;16.58;;;;;;;6.26;79.14;100168.03;349887;28;1103;-69
2021/03/11 00:35:33;;;;;;;24.20;16.80;;;;;;;6.25;78.39;100229.25;349952;28;1120;-69
2021/03/11 00:35:44;;;;;;;32.30;19.23;;;;;;;6.18;79.23;100185.81;349451;28;1972;-67
2021/03/11 00:35:56;;;;;;;29.20;18.80;;;;;;;6.19;78.79;100165.69;350748;28;1224;-68
2021/03/11 00:36:07;;;;;;;20.25;16.40;;;;;;;6.21;78.71;100166.47;349467;28;1161;-69
2021/03/11 00:36:18;;;;;;;17.25;14.15;;;;;;;6.18;79.49;100170.09;349529;28;1134;-69
2021/03/11 00:36:29;;;;;;;19.10;14.65;;;;;;;6.19;79.05;100168.31;349979;28;1020;-68
2021/03/11 00:36:40;;;;;;;19.75;14.48;;;;;;;6.19;79.59;100166.53;350886;28;1049;-68
2021/03/11 00:36:52;;;;;;;20.15;13.63;;;;;;;6.18;79.81;100170.09;350920;28;1172;-69
2021/03/11 00:37:03;;;;;;;18.92;13.25;;;;;;;6.19;79.89;100169.16;350924;28;1197;-69
2021/03/11 00:37:14;;;;;;;19.90;14.13;;;;;;;6.22;78.65;100168.19;349569;28;1200;-69
2021/03/11 00:37:26;;;;;;;19.02;13.80;;;;;;;6.23;79.56;100173.38;349922;28;1065;-69
2021/03/11 00:37:38;;;;;;;21.55;15.68;;;;;;;6.25;79.86;100174.19;350879;28;1611;-68
2021/03/11 00:37:50;;;;;;;21.27;15.48;;;;;;;6.28;78.62;100186.31;350969;28;1149;-69
2021/03/11 00:38:01;;;;;;;22.70;15.20;;;;;;;6.28;79.38;100163.56;351360;28;1077;-69
2021/03/11 00:38:12;;;;;;;22.42;14.20;;;;;;;6.31;79.13;100178.34;352382;28;1190;-67
2021/03/11 00:38:23;;;;;;;22.38;14.27;;;;;;;6.30;78.54;100186.25;350959;28;1061;-68
2021/03/11 00:38:34;;;;;;;22.15;15.18;;;;;;;6.32;78.34;100180.06;350926;28;1148;-69
2021/03/11 00:38:45;;;;;;;22.25;15.35;;;;;;;6.31;79.50;100169.63;349675;28;1936;-68
2021/03/11 00:38:56;;;;;;;23.77;17.15;;;;;;;6.33;79.85;100180.91;349476;28;1258;-69
2021/03/11 00:39:08;;;;;;;22.73;17.02;;;;;;;6.30;79.29;100165.28;349614;28;1097;-69
2021/03/11 00:39:19;;;;;;;20.77;16.30;;;;;;;6.24;78.51;100169.84;350550;28;1084;-68
2021/03/11 00:39:30;;;;;;;19.33;15.10;;;;;;;6.28;78.82;100173.22;351268;28;1076;-69
2021/03/11 00:39:41;;;;;;;19.27;14.35;;;;;;;6.29;79.04;100174.91;352347;28;1192;-67
2021/03/11 00:39:52;;;;;;;19.40;14.00;;;;;;;6.28;79.16;100171.44;350990;28;1135;-69
2021/03/11 00:40:07;;;;;;;19.00;14.43;;;;;;;6.28;78.50;100157.47;350958;28;1167;-66
2021/03/11 00:40:21;;;;;;;19.84;14.06;;;;;;;6.27;79.37;100164.47;348700;28;22909;-67
2021/03/11 00:40:33;;;;;;;20.60;13.70;;;;;;;6.31;79.47;100159.13;349304;28;1412;-68
2021/03/11 00:40:44;;;;;;;22.45;14.50;;;;;;;6.31;78.28;100159.13;350583;28;1088;-69
2021/03/11 00:40:55;;;;;;;21.83;14.93;;;;;;;6.28;79.40;100165.34;350918;28;1068;-70
2021/03/11 00:41:06;;;;;;;21.60;14.77;;;;;;;6.28;79.43;100160.09;350960;28;1077;-67
2021/03/11 00:41:17;;;;;;;20.76;14.12;;;;;;;6.30;78.95;100160.03;350848;28;1135;-68
2021/03/11 00:41:28;;;;;;;20.92;14.57;;;;;;;6.32;78.73;100158.19;350922;28;1192;-69
2021/03/11 00:41:39;;;;;;;21.15;14.68;;;;;;;6.32;78.25;100166.06;351014;28;1187;-68
2021/03/11 00:41:50;;;;;;;21.65;15.10;;;;;;;6.32;79.53;100163.44;350968;28;1130;-69
2021/03/11 00:42:02;;;;;;;22.98;15.13;;;;;;;6.34;79.51;100162.47;351854;28;1056;-68
2021/03/11 00:42:13;;;;;;;23.24;15.10;;;;;;;6.33;78.45;100159.91;352018;28;1503;-67
2021/03/11 00:42:24;;;;;;;22.63;15.73;;;;;;;6.33;79.48;100159.91;352399;28;1069;-68
2021/03/11 00:42:35;;;;;;;22.63;16.30;;;;;;;6.35;78.54;100163.34;352168;27;1944;-68
2021/03/11 00:42:47;;;;;;;22.17;16.25;;;;;;;6.34;79.27;100165.09;352866;27;1021;-68
2021/03/11 00:42:59;;;;;;;22.45;16.63;;;;;;;6.35;78.81;100156.31;352312;28;1142;-68
2021/03/11 00:43:13;;;;;;;21.73;15.60;;;;;;;6.35;78.64;100160.72;353012;27;1182;-69
2021/03/11 00:43:24;;;;;;;20.50;14.10;;;;;;;6.32;78.37;100168.69;352110;27;46885;-70
2021/03/11 00:43:36;;;;;;;20.55;14.38;;;;;;;6.34;78.81;100161.63;353760;27;1053;-68
2021/03/11 00:43:47;;;;;;;20.95;14.40;;;;;;;6.31;79.11;100157.34;352394;28;1081;-69
2021/03/11 00:43:58;;;;;;;23.48;16.52;;;;;;;6.34;79.06;100162.47;352121;28;1167;-66
2021/03/11 00:44:09;;;;;;;23.80;16.52;;;;;;;6.34;79.19;100170.34;352223;28;1157;-68
2021/03/11 00:44:20;;;;;;;24.42;17.27;;;;;;;6.33;79.20;100173.03;352395;28;1048;-67
2021/03/11 00:44:31;;;;;;;21.86;15.94;;;;;;;6.31;78.68;100159.13;352363;28;1013;-68
2021/03/11 00:44:43;;;;;;;21.20;15.43;;;;;;;6.27;78.86;100167.09;351823;27;1990;-69
2021/03/11 00:44:54;;;;;;;20.52;14.20;;;;;;;6.27;78.78;100153.97;353765;27;1148;-70
2021/03/11 00:45:07;;;;;;;20.10;13.30;;;;;;;6.26;78.84;100167.16;353659;27;1105;-68
2021/03/11 00:45:19;;;;;;;19.95;14.82;;;;;;;6.22;79.92;100160.31;353245;27;1926;-67
2021/03/11 00:45:30;;;;;;;21.23;16.52;;;;;;;6.24;80.19;100161.97;352220;28;1129;-68
2021/03/11 00:45:46;;;;;;;21.63;15.35;;;;;;;6.25;79.05;100147.97;351138;28;1222;-68
2021/03/11 00:45:57;;;;;;;21.05;14.52;;;;;;;6.30;79.55;100160.03;348284;28;75093;-68
2021/03/11 00:46:09;;;;;;;20.58;14.68;;;;;;;6.29;79.08;100151.28;349553;28;1140;-68
2021/03/11 00:46:20;;;;;;;20.73;13.77;;;;;;;6.32;78.82;100153.81;350021;28;1867;-69
2021/03/11 00:46:32;;;;;;;22.83;14.50;;;;;;;6.35;80.05;100140.56;350947;28;1151;-68
2021/03/11 00:46:44;;;;;;;24.73;17.00;;;;;;;6.37;78.96;100141.34;351013;28;1140;-68
2021/03/11 00:46:55;;;;;;;25.33;18.48;;;;;;;6.43;78.95;100150.78;350822;28;1037;-67
2021/03/11 00:47:07;;;;;;;23.80;18.35;;;;;;;6.43;78.77;100149.00;349607;28;1163;-68
2021/03/11 00:47:20;;;;;;;21.23;15.88;;;;;;;6.36;79.82;100142.28;349670;28;1301;-70
2021/03/11 00:47:31;;;;;;;19.10;12.93;;;;;;;6.34;78.77;100151.13;350157;28;24066;-68
2021/03/11 00:47:44;;;;;;;18.55;12.70;;;;;;;6.32;78.55;100138.09;350870;28;1196;-68
2021/03/11 00:47:56;;;;;;;20.35;13.30;;;;;;;6.32;79.56;100145.94;350880;28;1180;-69
2021/03/11 00:48:07;;;;;;;19.27;13.27;;;;;;;6.34;79.51;100145.88;350536;28;1106;-69
2021/03/11 00:48:19;;;;;;;19.02;12.93;;;;;;;6.34;78.69;100148.50;349561;28;1347;-67
2021/03/11 00:48:31;;;;;;;20.58;14.43;;;;;;;6.37;78.85;100151.00;349542;28;1102;-69
2021/03/11 00:48:42;;;;;;;20.80;14.55;;;;;;;6.36;78.77;100146.66;349222;28;1885;-68
2021/03/11 00:48:53;;;;;;;21.25;15.18;;;;;;;6.35;79.47;100147.59;348569;28;1185;-69
2021/03/11 00:49:04;;;;;;;19.55;14.18;;;;;;;6.33;79.04;100133.69;349821;28;2144;-68
2021/03/11 00:49:15;;;;;;;19.05;14.10;;;;;;;6.34;79.51;100144.09;350917;28;1040;-69
2021/03/11 00:49:27;;;;;;;17.02;12.63;;;;;;;6.34;79.57;100145.88;351009;28;1089;-69
2021/03/11 00:49:38;;;;;;;17.60;12.80;;;;;;;6.37;79.65;100145.75;350865;28;1192;-67
2021/03/11 00:49:49;;;;;;;19.77;14.65;;;;;;;6.38;79.53;100147.47;350158;28;1125;-68
2021/03/11 00:50:02;;;;;;;20.83;15.73;;;;;;;6.36;79.08;100138.78;349886;28;1053;-69
2021/03/11 00:50:17;;;;;;;19.55;14.23;;;;;;;6.37;78.78;100130.88;351342;28;1605;-67
2021/03/11 00:50:28;;;;;;;20.25;14.52;;;;;;;6.43;79.17;100140.28;350815;28;48124;-69
2021/03/11 00:50:40;;;;;;;22.13;16.75;;;;;;;6.42;78.25;100139.41;352256;28;1073;-69
2021/03/11 00:50:51;;;;;;;20.75;15.40;;;;;;;6.39;79.44;100143.94;352791;27;1083;-68
2021/03/11 00:51:02;;;;;;;18.88;12.98;;;;;;;6.38;79.19;100137.81;353837;27;1117;-69
2021/03/11 00:51:14;;;;;;;18.05;12.15;;;;;;;6.41;79.61;100131.59;353912;27;1045;-69
2021/03/11 00:51:39;;;;;;;20.88;14.88;;;;;;;6.40;79.01;100132.50;351355;27;71134;-68
2021/03/11 00:51:51;;;;;;;20.20;13.98;;;;;;;6.40;79.18;100135.13;353097;27;24111;-69
2021/03/11 00:52:02;;;;;;;19.73;13.95;;;;;;;6.42;79.38;100136.78;353794;27;1097;-68
2021/03/11 00:52:14;;;;;;;21.95;15.77;;;;;;;6.45;78.76;100120.06;353755;27;1060;-68
2021/03/11 00:52:25;;;;;;;22.05;16.35;;;;;;;6.45;78.82;100135.81;351737;28;1323;-68
2021/03/11 00:52:36;;;;;;;21.83;16.90;;;;;;;6.49;79.02;100145.28;350869;28;1107;-67
2021/03/11 00:52:50;;;;;;;21.58;17.25;;;;;;;6.44;79.39;100155.97;350981;28;1033;-68
2021/03/11 00:53:02;;;;;;;20.10;16.33;;;;;;;6.39;78.50;100154.44;350148;28;22953;-71
2021/03/11 00:53:13;;;;;;;19.23;15.05;;;;;;;6.38;79.18;100129.97;352311;28;1052;-69
2021/03/11 00:53:24;;;;;;;18.80;13.35;;;;;;;6.39;79.63;100136.09;350860;28;1002;-68
2021/03/11 00:53:35;;;;;;;19.50;13.85;;;;;;;6.35;79.77;100147.59;351707;28;1147;-69
2021/03/11 00:53:46;;;;;;;19.65;13.68;;;;;;;6.34;78.97;100135.41;352371;28;1165;-70
2021/03/11 00:53:57;;;;;;;19.55;14.73;;;;;;;6.34;79.04;100130.16;352311;28;1075;-68
2021/03/11 00:54:08;;;;;;;18.70;13.82;;;;;;;6.36;79.84;100130.94;352542;27;1086;-68
2021/03/11 00:54:19;;;;;;;18.92;13.00;;;;;;;6.37;80.07;100130.03;351280;28;1130;-68
2021/03/11 00:54:31;;;;;;;19.05;12.98;;;;;;;6.39;79.62;100130.84;352339;28;1060;-68
2021/03/11 00:54:42;;;;;;;19.65;13.15;;;;;;;6.37;79.20;100125.63;352357;28;1168;-69
2021/03/11 00:54:53;;;;;;;20.35;13.27;;;;;;;6.41;80.00;100118.50;352415;28;1143;-70